Time;durP1;ratioP1;P1;durP2;ratioP2;P2;SDS_P1;SDS_P2;PMS_P1;PMS_P2;Temp;Humidity;BMP_temperature;BMP_pressure;BME280_temperature;BME280_humidity;BME280_pressure;Samples;Min_cycle;Max_cycle;Signal;HPM_P1;HPM_P2
2023/11/30 00:00:17;;;;;;;;;;;;;;;;;;5077787;28;19976;-82
2023/11/30 00:02:42;;;;;;;;;;;;;;;;;;5085446;28;19951;-83
2023/11/30 00:05:08;;;;;;;;;;;;;;;;;;5084584;28;19946;-83
2023/11/30 00:07:34;;;;;;;;;;;;;;;;;;5080808;28;19964;-83
2023/11/30 00:09:59;;;;;;;;;;;;;;;;;;5086858;28;19908;-83
2023/11/30 00:12:24;;;;;;;;;;;;;;;;;;5078811;28;20362;-83
2023/11/30 00:14:49;;;;;;;;;;;;;;;;;;5075756;28;19909;-84
2023/11/30 00:17:14;;;;;;;;;;;;;;;;;;5076357;28;19916;-84
2023/11/30 00:19:39;;;;;;;;;;;;;;;;;;5088667;28;19916;-84
2023/11/30 00:22:04;;;;;;;;;;;;;;;;;;5096753;28;19915;-83
2023/11/30 00:24:29;;;;;;;;;;;;;;;;;;5077260;28;19923;-83
2023/11/30 00:26:54;;;;;;;;;;;;;;;;;;5076271;28;19909;-82
2023/11/30 00:29:19;;;;;;;;;;;;;;;;;;5084630;28;19909;-83
2023/11/30 00:31:44;;;;;;;;;;;;;;;;;;5080489;28;19908;-82
2023/11/30 00:34:10;;;;;;;;;;;;;;;;;;5087780;28;19951;-83
2023/11/30 00:36:35;;;;;;;;;;;;;;;;;;5084315;28;19962;-82
2023/11/30 00:39:00;;;;;;;;;;;;;;;;;;5084248;28;20066;-83
2023/11/30 00:41:25;;;;;;;;;;;;;;;;;;5091383;28;19908;-82
2023/11/30 00:43:50;;;;;;;;;;;;;;;;;;5074197;28;20277;-83
2023/11/30 00:46:16;;;;;;;;;;;;;;;;;;5074723;28;20361;-82
2023/11/30 00:48:41;;;;;;;;;;;;;;;;;;5085819;28;20011;-82
2023/11/30 00:51:06;;;;;;;;;;;;;;;;;;5079419;28;20342;-83
2023/11/30 00:53:31;;;;;;;;;;;;;;;;;;5084714;28;20361;-84
2023/11/30 00:55:56;;;;;;;;;;;;;;;;;;5088740;28;19908;-84
2023/11/30 00:58:21;;;;;;;;;;;;;;;;;;5078865;28;19912;-82
2023/11/30 01:00:46;;;;;;;;;;;;;;;;;;5076629;28;19908;-84
2023/11/30 01:03:11;;;;;;;;;;;;;;;;;;5076851;28;19920;-87
2023/11/30 01:05:36;;;;;;;;;;;;;;;;;;5076604;28;19927;-84
2023/11/30 01:08:02;;;;;;;;;;;;;;;;;;5082923;28;19909;-84
2023/11/30 01:10:27;;;;;;;;;;;;;;;;;;5088823;28;19908;-83
2023/11/30 01:12:52;;;;;;;;;;;;;;;;;;5083065;28;19909;-83
2023/11/30 01:15:18;;;;;;;;;;;;;;;;;;5085271;28;19916;-83
2023/11/30 01:17:43;;;;;;;;;;;;;;;;;;5092821;28;19909;-84
2023/11/30 01:20:08;;;;;;;;;;;;;;;;;;5086540;28;19908;-83
2023/11/30 01:22:33;;;;;;;;;;;;;;;;;;5086944;28;19970;-83
2023/11/30 01:24:59;;;;;;;;;;;;;;;;;;5081849;28;19912;-83
2023/11/30 01:27:24;;;;;;;;;;;;;;;;;;5076164;28;19999;-84
2023/11/30 01:29:49;;;;;;;;;;;;;;;;;;5084307;28;19908;-83
2023/11/30 01:32:16;;;;;;;;;;;;;;;;;;5076246;28;19947;-81
2023/11/30 01:34:41;;;;;;;;;;;;;;;;;;5081565;28;19920;-81
2023/11/30 01:37:06;;;;;;;;;;;;;;;;;;5072877;28;19909;-81
2023/11/30 01:39:31;;;;;;;;;;;;;;;;;;5083094;28;20300;-81
2023/11/30 01:41:56;;;;;;;;;;;;;;;;;;5081311;28;19908;-81
2023/11/30 01:44:21;;;;;;;;;;;;;;;;;;5077247;28;20007;-81
2023/11/30 01:46:47;;;;;;;;;;;;;;;;;;5081366;28;19913;-82
2023/11/30 01:49:12;;;;;;;;;;;;;;;;;;5082615;28;19930;-82
2023/11/30 01:51:37;;;;;;;;;;;;;;;;;;5074544;28;20017;-81
2023/11/30 01:54:02;;;;;;;;;;;;;;;;;;5082391;28;20490;-81
2023/11/30 01:56:27;;;;;;;;;;;;;;;;;;5086446;28;19912;-81
2023/11/30 01:58:52;;;;;;;;;;;;;;;;;;5087258;28;19908;-81
2023/11/30 02:01:17;;;;;;;;;;;;;;;;;;5086024;28;19914;-81
2023/11/30 02:03:42;;;;;;;;;;;;;;;;;;5078828;28;20006;-81
2023/11/30 02:06:07;;;;;;;;;;;;;;;;;;5086721;28;19908;-81
2023/11/30 02:08:32;;;;;;;;;;;;;;;;;;5083224;28;19934;-81
2023/11/30 02:10:58;;;;;;;;;;;;;;;;;;5075912;28;19908;-81
2023/11/30 02:13:23;;;;;;;;;;;;;;;;;;5092227;28;19908;-81
2023/11/30 02:15:48;;;;;;;;;;;;;;;;;;5076315;28;19908;-81
2023/11/30 02:18:13;;;;;;;;;;;;;;;;;;5074722;28;19909;-81
2023/11/30 02:20:38;;;;;;;;;;;;;;;;;;5078372;28;19908;-81
2023/11/30 02:23:03;;;;;;;;;;;;;;;;;;5079974;28;20512;-81
2023/11/30 02:25:28;;;;;;;;;;;;;;;;;;5073491;28;19912;-81
2023/11/30 02:27:53;;;;;;;;;;;;;;;;;;5074059;28;19958;-81
2023/11/30 02:30:18;;;;;;;;;;;;;;;;;;5074677;28;19916;-82
2023/11/30 02:32:44;;;;;;;;;;;;;;;;;;5088936;28;19908;-81
2023/11/30 02:35:09;;;;;;;;;;;;;;;;;;5083037;28;19916;-80
2023/11/30 02:37:34;;;;;;;;;;;;;;;;;;5081573;28;19975;-81
2023/11/30 02:39:59;;;;;;;;;;;;;;;;;;5079544;28;20334;-81
2023/11/30 02:42:24;;;;;;;;;;;;;;;;;;5084854;28;19998;-81
2023/11/30 02:44:49;;;;;;;;;;;;;;;;;;5072605;28;19917;-81
2023/11/30 02:47:14;;;;;;;;;;;;;;;;;;5082687;28;20362;-81
2023/11/30 02:49:39;;;;;;;;;;;;;;;;;;5073599;28;19914;-81
2023/11/30 02:52:05;;;;;;;;;;;;;;;;;;5081077;28;19908;-81
2023/11/30 02:54:30;;;;;;;;;;;;;;;;;;5083804;28;19929;-81
2023/11/30 02:56:55;;;;;;;;;;;;;;;;;;5092845;28;19908;-81
2023/11/30 02:59:20;;;;;;;;;;;;;;;;;;5094652;28;19912;-81
2023/11/30 03:01:45;;;;;;;;;;;;;;;;;;5093076;28;19908;-81
2023/11/30 03:04:10;;;;;;;;;;;;;;;;;;5094332;28;19912;-81
2023/11/30 03:06:35;;;;;;;;;;;;;;;;;;5075999;28;20385;-81
2023/11/30 03:09:00;;;;;;;;;;;;;;;;;;5085269;28;19908;-81
2023/11/30 03:11:25;;;;;;;;;;;;;;;;;;5074753;28;19908;-81
2023/11/30 03:13:51;;;;;;;;;;;;;;;;;;5077812;28;19913;-81
2023/11/30 03:16:16;;;;;;;;;;;;;;;;;;5075913;28;19909;-81
2023/11/30 03:18:41;;;;;;;;;;;;;;;;;;5073668;28;19912;-81
2023/11/30 03:21:06;;;;;;;;;;;;;;;;;;5074436;28;20415;-81
2023/11/30 03:23:31;;;;;;;;;;;;;;;;;;5075656;28;20366;-82
2023/11/30 03:25:56;;;;;;;;;;;;;;;;;;5087020;28;19966;-81
2023/11/30 03:28:21;;;;;;;;;;;;;;;;;;5081221;28;19919;-81
2023/11/30 03:30:46;;;;;;;;;;;;;;;;;;5080847;28;19909;-81
2023/11/30 03:33:11;;;;;;;;;;;;;;;;;;5072274;28;19919;-81
2023/11/30 03:35:36;;;;;;;;;;;;;;;;;;5084269;28;19908;-81
2023/11/30 03:38:02;;;;;;;;;;;;;;;;;;5077377;28;20288;-81
2023/11/30 03:40:27;;;;;;;;;;;;;;;;;;5083208;28;19912;-81
2023/11/30 03:42:52;;;;;;;;;;;;;;;;;;5079474;28;20365;-81
2023/11/30 03:45:17;;;;;;;;;;;;;;;;;;5073186;28;19916;-81
2023/11/30 03:47:42;;;;;;;;;;;;;;;;;;5073467;28;19909;-81
2023/11/30 03:50:07;;;;;;;;;;;;;;;;;;5082490;28;19908;-81
2023/11/30 03:52:32;;;;;;;;;;;;;;;;;;5087335;28;20308;-81
2023/11/30 03:54:57;;;;;;;;;;;;;;;;;;5076933;28;19909;-81
2023/11/30 03:57:22;;;;;;;;;;;;;;;;;;5084338;28;20282;-81
2023/11/30 03:59:47;;;;;;;;;;;;;;;;;;5078034;28;20362;-81
2023/11/30 04:02:13;;;;;;;;;;;;;;;;;;5083262;28;19930;-81
2023/11/30 04:04:38;;;;;;;;;;;;;;;;;;5075521;28;19912;-81
2023/11/30 04:07:03;;;;;;;;;;;;;;;;;;5081987;28;19908;-81
2023/11/30 04:09:28;;;;;;;;;;;;;;;;;;5085303;28;19908;-81
2023/11/30 04:11:53;;;;;;;;;;;;;;;;;;5075354;28;19908;-81
2023/11/30 04:14:19;;;;;;;;;;;;;;;;;;5076633;28;19908;-81
2023/11/30 04:16:44;;;;;;;;;;;;;;;;;;5088676;28;20354;-81
2023/11/30 04:19:10;;;;;;;;;;;;;;;;;;5078916;28;19909;-81
2023/11/30 04:21:35;;;;;;;;;;;;;;;;;;5083565;28;20340;-81
2023/11/30 04:24:00;;;;;;;;;;;;;;;;;;5075653;28;20382;-81
2023/11/30 04:26:25;;;;;;;;;;;;;;;;;;5094531;28;19908;-82
2023/11/30 04:28:50;;;;;;;;;;;;;;;;;;5083554;28;19908;-81
2023/11/30 04:31:15;;;;;;;;;;;;;;;;;;5080628;28;19909;-81
2023/11/30 04:33:41;;;;;;;;;;;;;;;;;;5076706;28;19954;-81
2023/11/30 04:36:06;;;;;;;;;;;;;;;;;;5076646;28;20011;-81
2023/11/30 04:38:31;;;;;;;;;;;;;;;;;;5084684;28;19919;-81
2023/11/30 04:40:56;;;;;;;;;;;;;;;;;;5084234;28;20030;-81
2023/11/30 04:43:21;;;;;;;;;;;;;;;;;;5080569;28;20042;-82
2023/11/30 04:45:46;;;;;;;;;;;;;;;;;;5095145;28;20074;-81
2023/11/30 04:48:13;;;;;;;;;;;;;;;;;;5086339;28;20344;-81
2023/11/30 04:50:38;;;;;;;;;;;;;;;;;;5078655;28;20375;-81
2023/11/30 04:53:03;;;;;;;;;;;;;;;;;;5088023;28;20386;-81
2023/11/30 04:55:28;;;;;;;;;;;;;;;;;;5076908;28;20379;-81
2023/11/30 04:57:53;;;;;;;;;;;;;;;;;;5081979;28;20365;-81
2023/11/30 05:00:18;;;;;;;;;;;;;;;;;;5079073;28;19916;-81
2023/11/30 05:02:43;;;;;;;;;;;;;;;;;;5087867;28;19909;-81
2023/11/30 05:05:08;;;;;;;;;;;;;;;;;;5079794;28;19913;-81
2023/11/30 05:07:33;;;;;;;;;;;;;;;;;;5083970;28;19908;-81
2023/11/30 05:09:58;;;;;;;;;;;;;;;;;;5075473;28;19908;-81
2023/11/30 05:12:24;;;;;;;;;;;;;;;;;;5076847;28;20336;-81
2023/11/30 05:14:49;;;;;;;;;;;;;;;;;;5089774;28;20362;-81
2023/11/30 05:17:15;;;;;;;;;;;;;;;;;;5084382;28;19954;-81
2023/11/30 05:19:40;;;;;;;;;;;;;;;;;;5074957;28;19908;-82
2023/11/30 05:22:05;;;;;;;;;;;;;;;;;;5090536;28;19947;-81
2023/11/30 05:24:30;;;;;;;;;;;;;;;;;;5084183;28;20352;-81
2023/11/30 05:26:55;;;;;;;;;;;;;;;;;;5074719;28;20433;-81
2023/11/30 05:29:20;;;;;;;;;;;;;;;;;;5083133;28;20002;-81
2023/11/30 05:31:46;;;;;;;;;;;;;;;;;;5074731;28;19916;-81
2023/11/30 05:34:11;;;;;;;;;;;;;;;;;;5081658;28;19915;-81
2023/11/30 05:36:36;;;;;;;;;;;;;;;;;;5083592;28;19947;-81
2023/11/30 05:39:03;;;;;;;;;;;;;;;;;;5078265;28;19919;-81
2023/11/30 05:41:28;;;;;;;;;;;;;;;;;;5090009;28;19919;-82
2023/11/30 05:43:53;;;;;;;;;;;;;;;;;;5072971;28;19917;-82
2023/11/30 05:46:19;;;;;;;;;;;;;;;;;;5074679;28;19913;-82
2023/11/30 05:48:45;;;;;;;;;;;;;;;;;;5076637;28;20263;-81
2023/11/30 05:51:10;;;;;;;;;;;;;;;;;;5073883;28;19962;-82
2023/11/30 05:53:35;;;;;;;;;;;;;;;;;;5075252;28;19939;-81
2023/11/30 05:56:00;;;;;;;;;;;;;;;;;;5073396;28;19919;-81
2023/11/30 05:58:26;;;;;;;;;;;;;;;;;;5083912;28;20400;-81
2023/11/30 06:00:51;;;;;;;;;;;;;;;;;;5080663;28;19920;-82
2023/11/30 06:03:16;;;;;;;;;;;;;;;;;;5075703;28;19909;-82
2023/11/30 06:05:41;;;;;;;;;;;;;;;;;;5077412;28;19916;-81
2023/11/30 06:08:06;;;;;;;;;;;;;;;;;;5086480;28;20388;-81
2023/11/30 06:10:31;;;;;;;;;;;;;;;;;;5083171;28;19919;-81
2023/11/30 06:12:56;;;;;;;;;;;;;;;;;;5073680;28;19909;-81
2023/11/30 06:15:21;;;;;;;;;;;;;;;;;;5081756;28;19912;-82
2023/11/30 06:17:47;;;;;;;;;;;;;;;;;;5079808;28;19908;-81
2023/11/30 06:20:12;;;;;;;;;;;;;;;;;;5084952;28;19912;-81
2023/11/30 06:22:37;;;;;;;;;;;;;;;;;;5075935;28;19944;-82
2023/11/30 06:25:02;;;;;;;;;;;;;;;;;;5073426;28;19912;-81
2023/11/30 06:27:27;;;;;;;;;;;;;;;;;;5082549;28;19912;-82
2023/11/30 06:29:52;;;;;;;;;;;;;;;;;;5072911;28;19916;-82
2023/11/30 06:32:17;;;;;;;;;;;;;;;;;;5081163;28;19944;-82
2023/11/30 06:34:43;;;;;;;;;;;;;;;;;;5082178;28;19966;-82
2023/11/30 06:37:08;;;;;;;;;;;;;;;;;;5073219;28;19958;-82
2023/11/30 06:39:33;;;;;;;;;;;;;;;;;;5079618;28;19908;-82
2023/11/30 06:41:58;;;;;;;;;;;;;;;;;;5074653;28;19909;-83
2023/11/30 06:44:23;;;;;;;;;;;;;;;;;;5091384;28;19916;-81
2023/11/30 06:46:48;;;;;;;;;;;;;;;;;;5074767;28;19913;-85
2023/11/30 06:49:14;;;;;;;;;;;;;;;;;;5071453;28;19908;-83
2023/11/30 06:51:39;;;;;;;;;;;;;;;;;;5086439;28;19912;-84
2023/11/30 06:54:04;;;;;;;;;;;;;;;;;;5078850;28;19920;-82
2023/11/30 06:56:29;;;;;;;;;;;;;;;;;;5070596;28;19919;-83
2023/11/30 06:58:54;;;;;;;;;;;;;;;;;;5075303;28;19909;-82
2023/11/30 07:01:19;;;;;;;;;;;;;;;;;;5080426;28;19912;-82
2023/11/30 07:03:45;;;;;;;;;;;;;;;;;;5084250;28;19909;-84
2023/11/30 07:06:10;;;;;;;;;;;;;;;;;;5075139;28;19912;-83
2023/11/30 07:08:35;;;;;;;;;;;;;;;;;;5089106;28;19927;-83
2023/11/30 07:11:00;;;;;;;;;;;;;;;;;;5079801;28;20011;-83
2023/11/30 07:13:25;;;;;;;;;;;;;;;;;;5080026;28;19991;-82
2023/11/30 07:15:50;;;;;;;;;;;;;;;;;;5091153;28;19961;-82
2023/11/30 07:18:16;;;;;;;;;;;;;;;;;;5082866;28;19957;-84
2023/11/30 07:20:41;;;;;;;;;;;;;;;;;;5087726;28;19909;-85
2023/11/30 07:23:06;;;;;;;;;;;;;;;;;;5087754;28;19914;-83
2023/11/30 07:25:31;;;;;;;;;;;;;;;;;;5088670;28;19923;-83
2023/11/30 07:27:56;;;;;;;;;;;;;;;;;;5073197;28;19909;-85
2023/11/30 07:30:21;;;;;;;;;;;;;;;;;;5079018;28;19962;-85
2023/11/30 07:32:46;;;;;;;;;;;;;;;;;;5086322;28;19909;-85
2023/11/30 07:35:12;;;;;;;;;;;;;;;;;;5079598;28;19951;-85
2023/11/30 07:37:37;;;;;;;;;;;;;;;;;;5079074;28;19955;-85
2023/11/30 07:40:03;;;;;;;;;;;;;;;;;;5082493;28;19949;-85
2023/11/30 07:42:28;;;;;;;;;;;;;;;;;;5073768;28;19915;-85
2023/11/30 07:44:54;;;;;;;;;;;;;;;;;;5073819;28;19916;-85
2023/11/30 07:47:19;;;;;;;;;;;;;;;;;;5079828;28;19912;-85
2023/11/30 07:49:44;;;;;;;;;;;;;;;;;;5077167;28;19947;-85
2023/11/30 07:52:09;;;;;;;;;;;;;;;;;;5078820;28;19909;-85
2023/11/30 07:54:34;;;;;;;;;;;;;;;;;;5078592;28;19917;-85
2023/11/30 07:57:00;;;;;;;;;;;;;;;;;;5074236;28;19909;-84
2023/11/30 07:59:25;;;;;;;;;;;;;;;;;;5074057;28;19913;-85
2023/11/30 08:01:50;;;;;;;;;;;;;;;;;;5077213;28;20445;-85
2023/11/30 08:04:15;;;;;;;;;;;;;;;;;;5077396;28;19916;-85
2023/11/30 08:06:40;;;;;;;;;;;;;;;;;;5085386;28;20373;-86
2023/11/30 08:09:06;;;;;;;;;;;;;;;;;;5094139;28;20377;-86
2023/11/30 08:11:31;;;;;;;;;;;;;;;;;;5076773;28;19947;-86
2023/11/30 08:13:56;;;;;;;;;;;;;;;;;;5073393;28;20328;-86
2023/11/30 08:16:21;;;;;;;;;;;;;;;;;;5077463;28;19916;-86
2023/11/30 08:18:46;;;;;;;;;;;;;;;;;;5085756;28;19908;-86
2023/11/30 08:21:11;;;;;;;;;;;;;;;;;;5086910;28;19916;-86
2023/11/30 08:23:37;;;;;;;;;;;;;;;;;;5085464;28;20011;-86
2023/11/30 08:26:03;;;;;;;;;;;;;;;;;;5085744;28;20014;-86
2023/11/30 08:28:28;;;;;;;;;;;;;;;;;;5081721;28;19962;-86
2023/11/30 08:30:53;;;;;;;;;;;;;;;;;;5087025;28;19991;-85
2023/11/30 08:33:19;;;;;;;;;;;;;;;;;;5086513;28;20030;-86
2023/11/30 08:35:46;;;;;;;;;;;;;;;;;;5083980;28;19915;-86
2023/11/30 08:38:12;;;;;;;;;;;;;;;;;;5081574;28;19919;-85
2023/11/30 08:40:37;;;;;;;;;;;;;;;;;;5074408;28;19913;-85
2023/11/30 08:43:02;;;;;;;;;;;;;;;;;;5083480;28;19922;-85
2023/11/30 08:45:27;;;;;;;;;;;;;;;;;;5074526;28;19955;-85
2023/11/30 08:47:52;;;;;;;;;;;;;;;;;;5082768;28;19932;-85
2023/11/30 08:50:17;;;;;;;;;;;;;;;;;;5082671;28;19948;-85
2023/11/30 08:52:42;;;;;;;;;;;;;;;;;;5087816;28;19915;-85
2023/11/30 08:55:07;;;;;;;;;;;;;;;;;;5079585;28;20307;-86
2023/11/30 08:57:33;;;;;;;;;;;;;;;;;;5081230;28;20415;-85
2023/11/30 08:59:58;;;;;;;;;;;;;;;;;;5079770;28;19915;-86
2023/11/30 09:02:24;;;;;;;;;;;;;;;;;;5084178;28;20399;-86
2023/11/30 09:04:49;;;;;;;;;;;;;;;;;;5086675;28;19938;-86
2023/11/30 09:07:14;;;;;;;;;;;;;;;;;;5093704;28;20353;-86
2023/11/30 09:09:39;;;;;;;;;;;;;;;;;;5082291;28;20273;-86
2023/11/30 09:12:05;;;;;;;;;;;;;;;;;;5073909;28;19954;-85
2023/11/30 09:14:30;;;;;;;;;;;;;;;;;;5082670;28;19908;-83
2023/11/30 09:16:55;;;;;;;;;;;;;;;;;;5072969;28;20377;-86
2023/11/30 09:19:20;;;;;;;;;;;;;;;;;;5080097;28;20017;-86
2023/11/30 09:21:45;;;;;;;;;;;;;;;;;;5076876;28;19958;-86
2023/11/30 09:24:11;;;;;;;;;;;;;;;;;;5076722;28;20054;-85
2023/11/30 09:26:36;;;;;;;;;;;;;;;;;;5076718;28;19908;-85
2023/11/30 09:29:01;;;;;;;;;;;;;;;;;;5091997;28;19960;-86
2023/11/30 09:31:27;;;;;;;;;;;;;;;;;;5084275;28;19957;-86
2023/11/30 09:33:53;;;;;;;;;;;;;;;;;;5084424;28;19923;-86
2023/11/30 09:36:18;;;;;;;;;;;;;;;;;;5083675;28;20430;-86
2023/11/30 09:38:43;;;;;;;;;;;;;;;;;;5076251;28;19965;-86
2023/11/30 09:41:08;;;;;;;;;;;;;;;;;;5076902;28;19908;-86
2023/11/30 09:43:33;;;;;;;;;;;;;;;;;;5076176;28;19939;-86
2023/11/30 09:45:59;;;;;;;;;;;;;;;;;;5079273;28;19916;-86
2023/11/30 09:48:24;;;;;;;;;;;;;;;;;;5074746;28;20329;-86
2023/11/30 09:50:49;;;;;;;;;;;;;;;;;;5084476;28;19954;-86
2023/11/30 09:53:14;;;;;;;;;;;;;;;;;;5085268;28;19966;-87
2023/11/30 09:55:39;;;;;;;;;;;;;;;;;;5088874;28;19995;-86
2023/11/30 09:58:05;;;;;;;;;;;;;;;;;;5074022;28;20012;-86
2023/11/30 10:00:30;;;;;;;;;;;;;;;;;;5083806;28;20342;-86
2023/11/30 10:02:55;;;;;;;;;;;;;;;;;;5080742;28;19935;-85
2023/11/30 10:05:21;;;;;;;;;;;;;;;;;;5073920;28;19958;-86
2023/11/30 10:07:46;;;;;;;;;;;;;;;;;;5080853;28;19915;-86
2023/11/30 10:10:11;;;;;;;;;;;;;;;;;;5076354;28;20266;-85
2023/11/30 10:12:36;;;;;;;;;;;;;;;;;;5076964;28;19912;-86
2023/11/30 10:15:01;;;;;;;;;;;;;;;;;;5093256;28;20457;-87
2023/11/30 10:17:26;;;;;;;;;;;;;;;;;;5075230;28;20358;-85
2023/11/30 10:19:51;;;;;;;;;;;;;;;;;;5085209;28;19912;-87
2023/11/30 10:22:17;;;;;;;;;;;;;;;;;;5075259;28;19919;-85
2023/11/30 10:24:42;;;;;;;;;;;;;;;;;;5072578;28;19912;-85
2023/11/30 10:27:08;;;;;;;;;;;;;;;;;;5072738;28;19909;-86
2023/11/30 10:29:33;;;;;;;;;;;;;;;;;;5074753;28;20011;-86
2023/11/30 10:31:58;;;;;;;;;;;;;;;;;;5084785;28;19966;-86
2023/11/30 10:34:24;;;;;;;;;;;;;;;;;;5081935;28;20369;-86
2023/11/30 10:36:49;;;;;;;;;;;;;;;;;;5084406;28;19908;-86
2023/11/30 10:39:16;;;;;;;;;;;;;;;;;;5083649;28;19915;-86
2023/11/30 10:41:41;;;;;;;;;;;;;;;;;;5089235;28;20020;-86
2023/11/30 10:44:06;;;;;;;;;;;;;;;;;;5071085;28;20126;-86
2023/11/30 10:46:33;;;;;;;;;;;;;;;;;;5081965;28;20042;-86
2023/11/30 10:48:58;;;;;;;;;;;;;;;;;;5076387;28;20053;-85
2023/11/30 10:51:23;;;;;;;;;;;;;;;;;;5072366;28;20002;-84
2023/11/30 10:53:48;;;;;;;;;;;;;;;;;;5083324;28;19995;-85
2023/11/30 10:56:13;;;;;;;;;;;;;;;;;;5083344;28;20264;-86
2023/11/30 10:58:38;;;;;;;;;;;;;;;;;;5072712;28;20366;-86
2023/11/30 11:01:04;;;;;;;;;;;;;;;;;;5081316;28;20446;-87
2023/11/30 11:03:29;;;;;;;;;;;;;;;;;;5085539;28;19940;-87
2023/11/30 11:05:55;;;;;;;;;;;;;;;;;;5082441;28;19956;-87
2023/11/30 11:08:20;;;;;;;;;;;;;;;;;;5084151;28;20381;-87
2023/11/30 11:10:45;;;;;;;;;;;;;;;;;;5084127;28;20366;-87
2023/11/30 11:13:10;;;;;;;;;;;;;;;;;;5075230;28;19915;-87
2023/11/30 11:15:35;;;;;;;;;;;;;;;;;;5079176;28;19923;-88
2023/11/30 11:18:03;;;;;;;;;;;;;;;;;;5080323;28;19909;-88
2023/11/30 11:20:28;;;;;;;;;;;;;;;;;;5084840;28;19908;-88
2023/11/30 11:22:53;;;;;;;;;;;;;;;;;;5082206;28;19916;-79
2023/11/30 11:25:18;;;;;;;;;;;;;;;;;;5076559;28;19977;-79
2023/11/30 11:27:43;;;;;;;;;;;;;;;;;;5091385;28;20280;-79
2023/11/30 11:30:09;;;;;;;;;;;;;;;;;;5092069;28;19908;-79
2023/11/30 11:32:34;;;;;;;;;;;;;;;;;;5083530;28;19999;-79
2023/11/30 11:34:59;;;;;;;;;;;;;;;;;;5092269;28;19908;-79
2023/11/30 11:37:24;;;;;;;;;;;;;;;;;;5081686;28;19916;-79
2023/11/30 11:39:52;;;;;;;;;;;;;;;;;;5088295;28;19968;-79
2023/11/30 11:42:19;;;;;;;;;;;;;;;;;;5091813;28;19909;-79
2023/11/30 11:44:44;;;;;;;;;;;;;;;;;;5093468;28;19916;-79
2023/11/30 11:47:09;;;;;;;;;;;;;;;;;;5093528;28;19908;-79
2023/11/30 11:49:34;;;;;;;;;;;;;;;;;;5096246;28;19908;-79
2023/11/30 11:51:59;;;;;;;;;;;;;;;;;;5088070;28;19954;-79
2023/11/30 11:54:24;;;;;;;;;;;;;;;;;;5083866;28;20320;-79
2023/11/30 11:56:50;;;;;;;;;;;;;;;;;;5083716;28;19916;-79
2023/11/30 11:59:15;;;;;;;;;;;;;;;;;;5083849;28;20216;-79
2023/11/30 12:01:41;;;;;;;;;;;;;;;;;;5083942;28;19908;-79
2023/11/30 12:04:07;;;;;;;;;;;;;;;;;;5082096;28;20255;-79
2023/11/30 12:06:32;;;;;;;;;;;;;;;;;;5082365;28;19908;-81
2023/11/30 12:08:57;;;;;;;;;;;;;;;;;;5084610;28;19909;-79
2023/11/30 12:11:22;;;;;;;;;;;;;;;;;;5083279;28;19915;-79
2023/11/30 12:13:47;;;;;;;;;;;;;;;;;;5080723;28;19909;-79
2023/11/30 12:16:13;;;;;;;;;;;;;;;;;;5073809;28;20062;-87
2023/11/30 12:18:38;;;;;;;;;;;;;;;;;;5081267;28;19909;-87
2023/11/30 12:21:03;;;;;;;;;;;;;;;;;;5085620;28;20277;-85
2023/11/30 12:23:28;;;;;;;;;;;;;;;;;;5086368;28;20377;-83
2023/11/30 12:25:53;;;;;;;;;;;;;;;;;;5077340;28;19971;-85
2023/11/30 12:28:18;;;;;;;;;;;;;;;;;;5076092;28;19931;-84
2023/11/30 12:30:43;;;;;;;;;;;;;;;;;;5079654;28;20382;-84
2023/11/30 12:33:09;;;;;;;;;;;;;;;;;;5086151;28;19970;-87
2023/11/30 12:35:34;;;;;;;;;;;;;;;;;;5077936;28;21153;-83
2023/11/30 12:37:59;;;;;;;;;;;;;;;;;;5086693;28;19916;-87
2023/11/30 12:40:24;;;;;;;;;;;;;;;;;;5082629;28;19908;-86
2023/11/30 12:42:50;;;;;;;;;;;;;;;;;;5086968;28;19909;-85
2023/11/30 12:45:15;;;;;;;;;;;;;;;;;;5086840;28;20024;-87
2023/11/30 12:47:40;;;;;;;;;;;;;;;;;;5081699;28;19915;-86
2023/11/30 12:50:05;;;;;;;;;;;;;;;;;;5081924;28;20336;-86
2023/11/30 12:52:30;;;;;;;;;;;;;;;;;;5084158;28;19913;-86
2023/11/30 12:54:56;;;;;;;;;;;;;;;;;;5085760;28;19912;-86
2023/11/30 12:57:21;;;;;;;;;;;;;;;;;;5086065;28;19981;-86
2023/11/30 12:59:46;;;;;;;;;;;;;;;;;;5078884;28;19908;-86
2023/11/30 13:02:11;;;;;;;;;;;;;;;;;;5085163;28;19912;-87
2023/11/30 13:04:38;;;;;;;;;;;;;;;;;;5076703;28;20361;-86
2023/11/30 13:07:03;;;;;;;;;;;;;;;;;;5086406;28;19915;-86
2023/11/30 13:09:32;;;;;;;;;;;;;;;;;;5085263;28;19908;-85
2023/11/30 13:11:57;;;;;;;;;;;;;;;;;;5081808;28;19925;-85
2023/11/30 13:14:22;;;;;;;;;;;;;;;;;;5077894;28;20088;-84
2023/11/30 13:16:48;;;;;;;;;;;;;;;;;;5083161;28;20011;-88
2023/11/30 13:19:13;;;;;;;;;;;;;;;;;;5073773;28;19967;-87
2023/11/30 13:21:38;;;;;;;;;;;;;;;;;;5081829;28;20034;-87
2023/11/30 13:24:03;;;;;;;;;;;;;;;;;;5080553;28;19959;-88
2023/11/30 13:26:29;;;;;;;;;;;;;;;;;;5082407;28;19936;-83
2023/11/30 13:28:54;;;;;;;;;;;;;;;;;;5075489;28;19909;-89
2023/11/30 13:31:19;;;;;;;;;;;;;;;;;;5075633;28;19908;-88
2023/11/30 13:33:44;;;;;;;;;;;;;;;;;;5093908;28;20377;-89
2023/11/30 13:36:09;;;;;;;;;;;;;;;;;;5085645;28;19999;-90
2023/11/30 13:38:34;;;;;;;;;;;;;;;;;;5074595;28;19909;-89
2023/11/30 13:41:00;;;;;;;;;;;;;;;;;;5073525;28;19915;-89
2023/11/30 13:43:25;;;;;;;;;;;;;;;;;;5072852;28;19961;-89
2023/11/30 13:45:51;;;;;;;;;;;;;;;;;;5086273;28;20489;-89
2023/11/30 13:48:16;;;;;;;;;;;;;;;;;;5092482;28;19908;-89
2023/11/30 13:50:42;;;;;;;;;;;;;;;;;;5072789;28;19919;-89
2023/11/30 13:53:07;;;;;;;;;;;;;;;;;;5088274;28;19908;-89
2023/11/30 13:55:32;;;;;;;;;;;;;;;;;;5084240;28;19908;-89
2023/11/30 13:57:57;;;;;;;;;;;;;;;;;;5092544;28;19958;-89
2023/11/30 14:00:25;;;;;;;;;;;;;;;;;;5091481;28;20019;-89
2023/11/30 14:02:51;;;;;;;;;;;;;;;;;;5077183;28;19991;-89
2023/11/30 14:05:17;;;;;;;;;;;;;;;;;;5084912;28;19959;-90
2023/11/30 14:07:42;;;;;;;;;;;;;;;;;;5071907;28;19912;-87
2023/11/30 14:10:08;;;;;;;;;;;;;;;;;;5072223;28;19927;-89
2023/11/30 14:12:33;;;;;;;;;;;;;;;;;;5067322;28;19958;-91
2023/11/30 14:14:58;;;;;;;;;;;;;;;;;;5071330;28;19909;-89
2023/11/30 14:17:24;;;;;;;;;;;;;;;;;;5071912;28;20266;-89
2023/11/30 14:19:49;;;;;;;;;;;;;;;;;;5076316;28;19946;-90
2023/11/30 14:22:14;;;;;;;;;;;;;;;;;;5083275;28;19952;-89
2023/11/30 14:24:40;;;;;;;;;;;;;;;;;;5079674;28;19989;-89
2023/11/30 14:27:05;;;;;;;;;;;;;;;;;;5074667;28;20296;-90
2023/11/30 14:29:31;;;;;;;;;;;;;;;;;;5075301;28;20392;-89
2023/11/30 14:31:56;;;;;;;;;;;;;;;;;;5077081;28;19909;-90
2023/11/30 14:34:21;;;;;;;;;;;;;;;;;;5071117;28;19912;-90
2023/11/30 14:36:46;;;;;;;;;;;;;;;;;;5079509;28;20324;-89
2023/11/30 14:39:12;;;;;;;;;;;;;;;;;;5071126;28;19912;-89
2023/11/30 14:41:37;;;;;;;;;;;;;;;;;;5071181;28;19909;-90
2023/11/30 14:44:02;;;;;;;;;;;;;;;;;;5071201;28;19981;-89
2023/11/30 14:46:29;;;;;;;;;;;;;;;;;;5079616;28;22322;-89
2023/11/30 14:48:54;;;;;;;;;;;;;;;;;;5080247;28;19954;-89
2023/11/30 14:51:20;;;;;;;;;;;;;;;;;;5079973;28;19912;-89
2023/11/30 14:53:45;;;;;;;;;;;;;;;;;;5084128;28;19915;-90
2023/11/30 14:56:11;;;;;;;;;;;;;;;;;;5076134;28;19908;-89
2023/11/30 14:58:36;;;;;;;;;;;;;;;;;;5079353;28;20259;-90
2023/11/30 15:01:01;;;;;;;;;;;;;;;;;;5079881;28;19958;-90
2023/11/30 15:03:26;;;;;;;;;;;;;;;;;;5073805;28;19920;-80
2023/11/30 15:05:52;;;;;;;;;;;;;;;;;;5080430;28;20454;-80
2023/11/30 15:08:17;;;;;;;;;;;;;;;;;;5074044;28;20002;-79
2023/11/30 15:10:43;;;;;;;;;;;;;;;;;;5074176;28;19912;-79
2023/11/30 15:13:08;;;;;;;;;;;;;;;;;;5074008;28;19963;-78
2023/11/30 15:15:33;;;;;;;;;;;;;;;;;;5073285;28;19912;-79
2023/11/30 15:17:58;;;;;;;;;;;;;;;;;;5073716;28;19908;-79
2023/11/30 15:20:23;;;;;;;;;;;;;;;;;;5074129;28;20086;-79
2023/11/30 15:22:49;;;;;;;;;;;;;;;;;;5077827;28;19969;-79
2023/11/30 15:25:18;;;;;;;;;;;;;;;;;;5079814;28;19987;-78
2023/11/30 15:27:43;;;;;;;;;;;;;;;;;;5072039;28;19908;-78
2023/11/30 15:30:09;;;;;;;;;;;;;;;;;;5081842;28;19912;-78
2023/11/30 15:32:34;;;;;;;;;;;;;;;;;;5072599;28;19908;-78
2023/11/30 15:34:59;;;;;;;;;;;;;;;;;;5072161;28;19909;-80
2023/11/30 15:37:24;;;;;;;;;;;;;;;;;;5080313;28;20198;-79
2023/11/30 15:39:50;;;;;;;;;;;;;;;;;;5073505;28;20369;-78
2023/11/30 15:42:15;;;;;;;;;;;;;;;;;;5071530;28;19916;-81
2023/11/30 15:44:40;;;;;;;;;;;;;;;;;;5083878;28;20285;-77
2023/11/30 15:47:05;;;;;;;;;;;;;;;;;;5091949;28;19998;-77
2023/11/30 15:49:31;;;;;;;;;;;;;;;;;;5086288;28;20348;-77
2023/11/30 15:51:56;;;;;;;;;;;;;;;;;;5087475;28;19955;-77
2023/11/30 15:54:21;;;;;;;;;;;;;;;;;;5094650;28;19912;-77
2023/11/30 15:56:46;;;;;;;;;;;;;;;;;;5088281;28;19908;-77
2023/11/30 15:59:11;;;;;;;;;;;;;;;;;;5094269;28;20418;-77
2023/11/30 16:01:37;;;;;;;;;;;;;;;;;;5094941;28;19908;-77
2023/11/30 16:04:02;;;;;;;;;;;;;;;;;;5095388;28;19917;-77
2023/11/30 16:06:27;;;;;;;;;;;;;;;;;;5094207;28;19923;-77
2023/11/30 16:08:53;;;;;;;;;;;;;;;;;;5095259;28;20007;-77
2023/11/30 16:11:18;;;;;;;;;;;;;;;;;;5081820;28;20003;-77
2023/11/30 16:13:43;;;;;;;;;;;;;;;;;;5078685;28;19919;-77
2023/11/30 16:16:08;;;;;;;;;;;;;;;;;;5081359;28;19915;-77
2023/11/30 16:18:35;;;;;;;;;;;;;;;;;;5091904;28;19908;-77
2023/11/30 16:21:00;;;;;;;;;;;;;;;;;;5092983;28;19908;-77
2023/11/30 16:23:25;;;;;;;;;;;;;;;;;;5080600;28;20094;-77
2023/11/30 16:25:50;;;;;;;;;;;;;;;;;;5087416;28;20381;-77
2023/11/30 16:28:15;;;;;;;;;;;;;;;;;;5094667;28;19908;-77
2023/11/30 16:30:41;;;;;;;;;;;;;;;;;;5091256;28;19909;-77